createdAt,value
2022-08-04T00:01:02.189Z,21.89
2022-08-04T00:03:40.342Z,21.94
2022-08-04T00:06:15.583Z,21.87
2022-08-04T00:08:48.223Z,21.88
2022-08-04T00:11:21.511Z,21.85
2022-08-04T00:14:02.525Z,21.79
2022-08-04T00:16:38.680Z,21.76
2022-08-04T00:19:14.004Z,21.83
2022-08-04T00:21:52.508Z,21.85
2022-08-04T00:24:23.342Z,21.61
2022-08-04T00:26:55.529Z,21.62
2022-08-04T00:29:24.717Z,21.57
2022-08-04T00:31:57.823Z,21.57
2022-08-04T00:34:28.870Z,21.63
2022-08-04T00:37:00.156Z,21.74
2022-08-04T00:39:29.592Z,21.66
2022-08-04T00:42:18.929Z,21.65
2022-08-04T00:45:04.208Z,21.74
2022-08-04T00:47:43.376Z,21.55
2022-08-04T00:50:19.128Z,21.55
2022-08-04T00:53:09.435Z,21.52
2022-08-04T00:56:10.993Z,21.54
2022-08-04T00:59:00.635Z,21.54
2022-08-04T01:01:45.898Z,21.56
2022-08-04T01:04:25.752Z,21.58
2022-08-04T01:07:27.311Z,21.46
2022-08-04T01:10:07.944Z,21.49
2022-08-04T01:13:15.904Z,21.27
2022-08-04T01:15:59.951Z,21.35
2022-08-04T01:18:37.840Z,21.29
2022-08-04T01:21:32.445Z,21.35
2022-08-04T01:24:26.394Z,21.32
2022-08-04T01:27:03.877Z,21.19
2022-08-04T01:29:46.727Z,21.15
2022-08-04T01:32:25.687Z,21.14
2022-08-04T01:35:02.087Z,21.02
2022-08-04T01:37:49.286Z,20.93
2022-08-04T01:40:19.647Z,20.86
2022-08-04T01:42:54.081Z,20.82
2022-08-04T01:45:26.419Z,20.83
2022-08-04T01:47:57.205Z,20.96
2022-08-04T01:50:28.079Z,20.95
2022-08-04T01:52:57.725Z,21.04
2022-08-04T01:55:54.600Z,20.90
2022-08-04T01:58:20.855Z,20.90
2022-08-04T02:00:58.523Z,20.88
2022-08-04T02:04:19.911Z,20.96
2022-08-04T02:06:32.610Z,20.97
2022-08-04T02:09:13.460Z,20.98
2022-08-04T02:11:46.540Z,20.83
2022-08-04T02:14:40.177Z,20.97
2022-08-04T02:17:13.933Z,21.03
2022-08-04T02:20:02.018Z,21.07
2022-08-04T02:22:40.522Z,20.98
2022-08-04T02:25:12.239Z,20.90
2022-08-04T02:28:00.440Z,20.89
2022-08-04T02:30:35.399Z,20.71
2022-08-04T02:33:14.747Z,20.69
2022-08-04T02:35:47.188Z,20.68
2022-08-04T02:38:26.717Z,20.83
2022-08-04T02:41:00.369Z,20.77
2022-08-04T02:43:51.211Z,20.82
2022-08-04T02:46:21.274Z,20.61
2022-08-04T02:48:54.445Z,20.66
2022-08-04T02:51:29.267Z,20.64
2022-08-04T02:53:59.749Z,20.63
2022-08-04T02:56:32.148Z,20.62
2022-08-04T02:59:05.556Z,20.71
2022-08-04T03:01:35.161Z,20.58
2022-08-04T03:04:36.011Z,20.75
2022-08-04T03:07:41.165Z,20.74
2022-08-04T03:16:09.880Z,20.61
2022-08-04T03:19:25.807Z,20.79
2022-08-04T03:22:25.057Z,20.84
2022-08-04T03:25:55.816Z,20.90
2022-08-04T03:29:04.705Z,20.97
2022-08-04T03:32:04.847Z,21.00
2022-08-04T03:34:52.171Z,20.96
2022-08-04T03:37:54.421Z,21.10
2022-08-04T03:40:46.883Z,21.07
2022-08-04T03:43:57.257Z,21.15
2022-08-04T03:46:54.615Z,21.27
2022-08-04T03:49:52.745Z,21.34
2022-08-04T03:53:06.009Z,21.43
2022-08-04T03:56:06.742Z,21.50
2022-08-04T03:59:09.392Z,21.44
2022-08-04T04:02:02.892Z,21.45
2022-08-04T04:04:56.633Z,21.42
2022-08-04T04:08:18.753Z,21.58
2022-08-04T04:11:08.558Z,21.62
2022-08-04T04:14:09.692Z,21.78
2022-08-04T04:17:05.368Z,21.82
2022-08-04T04:19:58.936Z,21.87
2022-08-04T04:22:45.831Z,21.96
2022-08-04T04:25:30.203Z,22.16
2022-08-04T04:28:44.678Z,22.26
2022-08-04T04:31:34.668Z,22.38
2022-08-04T04:34:18.164Z,22.40
2022-08-04T04:36:59.822Z,22.51
2022-08-04T04:39:43.255Z,22.58
2022-08-04T04:42:39.245Z,22.65
2022-08-04T04:45:24.461Z,22.82
2022-08-04T04:48:08.181Z,22.84
2022-08-04T04:51:01.279Z,22.98
2022-08-04T04:53:37.206Z,22.95
2022-08-04T04:56:13.010Z,23.03
2022-08-04T04:58:44.044Z,23.03
2022-08-04T05:01:41.041Z,23.27
2022-08-04T05:04:26.532Z,23.45
2022-08-04T05:07:11.741Z,23.62
2022-08-04T05:09:56.508Z,23.69
2022-08-04T05:14:36.960Z,23.85
2022-08-04T05:15:45.078Z,23.97
2022-08-04T05:18:22.477Z,24.02
2022-08-04T05:20:58.491Z,24.20
2022-08-04T05:23:30.743Z,24.44
2022-08-04T05:26:03.591Z,24.49
2022-08-04T05:28:37.653Z,24.81
2022-08-04T05:31:12.556Z,24.80
2022-08-04T05:33:49.864Z,24.92
2022-08-04T05:36:40.216Z,24.97
2022-08-04T05:39:20.277Z,25.06
2022-08-04T05:41:55.627Z,25.16
2022-08-04T05:44:29.605Z,25.14
2022-08-04T05:46:59.941Z,25.37
2022-08-04T05:49:31.426Z,25.47
2022-08-04T05:52:03.607Z,25.56
2022-08-04T05:54:34.391Z,25.74
2022-08-04T05:57:06.239Z,25.77
2022-08-04T05:59:40.827Z,25.96
2022-08-04T06:02:12.410Z,26.07
2022-08-04T06:04:46.557Z,26.18
2022-08-04T06:07:16.442Z,26.26
2022-08-04T06:09:45.931Z,26.36
2022-08-04T06:12:19.882Z,26.54
2022-08-04T06:14:53.079Z,26.60
2022-08-04T06:18:35.647Z,26.80
2022-08-04T06:20:23.045Z,26.88
2022-08-04T06:22:57.635Z,26.92
2022-08-04T06:25:31.007Z,27.02
2022-08-04T06:28:02.833Z,27.04
2022-08-04T06:30:33.760Z,27.05
2022-08-04T06:33:13.641Z,27.24
2022-08-04T06:35:46.391Z,27.23
2022-08-04T06:38:15.820Z,27.22
2022-08-04T06:40:50.676Z,27.40
2022-08-04T06:43:21.197Z,27.50
2022-08-04T06:45:51.522Z,27.68
2022-08-04T06:48:22.463Z,27.86
2022-08-04T06:51:24.864Z,28.12
2022-08-04T06:53:54.159Z,28.19
2022-08-04T06:56:25.126Z,28.39
2022-08-04T06:58:56.453Z,28.65
2022-08-04T07:01:27.860Z,28.64
2022-08-04T07:03:57.831Z,28.64
2022-08-04T07:06:28.542Z,28.74
2022-08-04T07:08:59.798Z,28.69
2022-08-04T07:11:29.685Z,28.90
2022-08-04T07:14:12.023Z,29.08
2022-08-04T07:16:42.975Z,29.33
2022-08-04T07:19:17.124Z,29.50
2022-08-04T07:22:18.079Z,29.64
2022-08-04T07:24:40.989Z,29.61
2022-08-04T07:27:10.718Z,29.68
2022-08-04T07:29:41.252Z,29.89
2022-08-04T07:32:13.704Z,30.11
2022-08-04T07:34:44.262Z,30.08
2022-08-04T07:37:20.834Z,30.36
2022-08-04T07:39:50.554Z,30.63
2022-08-04T07:42:21.423Z,30.89
2022-08-04T07:44:51.693Z,30.80
2022-08-04T07:47:25.273Z,30.68
2022-08-04T07:49:57.519Z,30.96
2022-08-04T07:52:29.125Z,30.92
2022-08-04T07:54:59.616Z,31.27
2022-08-04T07:57:39.750Z,31.21
2022-08-04T08:00:14.602Z,31.42
2022-08-04T08:02:44.712Z,31.65
2022-08-04T08:05:16.971Z,31.53
2022-08-04T08:07:50.044Z,31.50
2022-08-04T08:10:24.361Z,31.65
2022-08-04T08:12:54.466Z,31.69
2022-08-04T08:15:24.540Z,31.92
2022-08-04T08:17:58.151Z,31.73
2022-08-04T08:20:33.388Z,32.23
2022-08-04T08:23:04.817Z,32.15
2022-08-04T08:25:35.053Z,32.04
2022-08-04T08:28:05.770Z,32.04
2022-08-04T08:30:35.287Z,32.47
2022-08-04T08:33:07.135Z,32.61
2022-08-04T08:35:53.955Z,32.69
2022-08-04T08:38:38.920Z,32.74
2022-08-04T08:41:45.051Z,32.59
2022-08-04T08:44:49.584Z,32.96
2022-08-04T08:48:04.613Z,33.02
2022-08-04T08:50:43.618Z,33.21
2022-08-04T08:53:24.474Z,32.89
2022-08-04T08:56:13.330Z,32.83
2022-08-04T08:59:00.314Z,33.18
2022-08-04T09:01:48.630Z,33.06
2022-08-04T09:04:54.080Z,33.46
2022-08-04T09:07:44.441Z,33.87
2022-08-04T09:10:20.437Z,33.65
2022-08-04T09:12:56.669Z,33.84
2022-08-04T09:15:38.688Z,33.67
2022-08-04T09:18:12.890Z,33.85
2022-08-04T09:20:49.336Z,34.17
2022-08-04T09:23:23.762Z,33.74
2022-08-04T09:26:02.515Z,34.27
2022-08-04T09:28:58.065Z,34.78
2022-08-04T09:31:51.606Z,34.83
2022-08-04T09:34:35.685Z,34.77
2022-08-04T09:37:14.371Z,34.52
2022-08-04T09:39:52.053Z,34.80
2022-08-04T09:42:30.944Z,35.03
2022-08-04T09:45:08.661Z,35.41
2022-08-04T09:47:50.527Z,34.77
2022-08-04T09:50:33.623Z,35.39
2022-08-04T09:53:17.159Z,35.72
2022-08-04T09:56:02.990Z,36.16
2022-08-04T09:58:55.319Z,35.99
2022-08-04T10:01:29.865Z,36.08
2022-08-04T10:04:04.104Z,36.74
2022-08-04T10:07:04.142Z,36.41
2022-08-04T10:09:48.992Z,36.67
2022-08-04T10:12:34.662Z,36.57
2022-08-04T10:15:12.429Z,37.32
2022-08-04T10:18:00.948Z,37.64
2022-08-04T10:21:01.346Z,35.82
2022-08-04T10:23:55.878Z,36.66
2022-08-04T10:26:38.289Z,37.29
2022-08-04T10:29:12.339Z,37.68
2022-08-04T10:31:47.768Z,38.48
2022-08-04T10:34:22.812Z,38.20
2022-08-04T10:37:00.601Z,39.98
2022-08-04T10:39:44.234Z,40.28
2022-08-04T10:42:25.663Z,41.22
2022-08-04T10:45:07.426Z,42.92
2022-08-04T10:47:52.395Z,41.77
2022-08-04T10:50:27.623Z,42.82
2022-08-04T10:53:04.131Z,42.68
2022-08-04T10:56:06.697Z,42.16
2022-08-04T10:58:47.305Z,42.56
2022-08-04T11:02:00.927Z,44.91
2022-08-04T11:04:42.774Z,47.16
2022-08-04T11:07:14.840Z,44.74
2022-08-04T11:09:48.688Z,43.05
2022-08-04T11:12:22.581Z,44.55
2022-08-04T11:14:57.381Z,42.74
2022-08-04T11:17:33.643Z,44.55
2022-08-04T11:20:34.070Z,44.99
2022-08-04T11:23:10.155Z,45.87
2022-08-04T11:25:52.557Z,44.69
2022-08-04T11:28:34.573Z,44.26
2022-08-04T11:31:08.586Z,44.11
2022-08-04T11:33:44.147Z,46.23
2022-08-04T11:36:23.024Z,47.21
2022-08-04T11:39:04.569Z,46.67
2022-08-04T11:41:43.584Z,47.56
2022-08-04T11:44:25.300Z,49.19
2022-08-04T11:47:00.091Z,47.51
2022-08-04T11:49:56.766Z,48.05
2022-08-04T11:52:28.344Z,50.49
2022-08-04T11:55:00.760Z,51.28
2022-08-04T11:57:35.661Z,51.75
2022-08-04T12:00:10.918Z,51.43
2022-08-04T12:03:20.505Z,50.05
2022-08-04T12:05:59.883Z,46.68
2022-08-04T12:08:42.074Z,46.88
2022-08-04T12:11:22.333Z,44.48
2022-08-04T12:14:04.050Z,42.60
2022-08-04T12:16:43.404Z,42.69
2022-08-04T12:19:25.554Z,42.26
2022-08-04T12:22:07.098Z,43.85
2022-08-04T12:24:43.050Z,43.96
2022-08-04T12:27:19.174Z,45.67
2022-08-04T12:30:59.925Z,45.99
2022-08-04T12:32:54.233Z,46.51
2022-08-04T12:35:32.270Z,47.89
2022-08-04T12:38:05.156Z,46.67
2022-08-04T12:40:40.801Z,48.60
2022-08-04T12:43:16.351Z,49.20
2022-08-04T12:45:48.889Z,48.48
2022-08-04T12:48:21.616Z,48.99
2022-08-04T12:50:54.032Z,49.14
2022-08-04T12:53:31.899Z,49.86
2022-08-04T12:56:04.021Z,49.92
2022-08-04T12:58:43.661Z,48.33
2022-08-04T13:02:09.029Z,47.89
2022-08-04T13:04:15.830Z,50.76
2022-08-04T13:06:53.161Z,49.22
2022-08-04T13:09:24.713Z,51.13
2022-08-04T13:11:58.011Z,49.17
2022-08-04T13:14:33.187Z,48.86
2022-08-04T13:17:04.384Z,50.94
2022-08-04T13:19:41.137Z,49.57
2022-08-04T13:22:12.030Z,50.38
2022-08-04T13:25:18.139Z,50.21
2022-08-04T13:27:43.355Z,49.56
2022-08-04T13:30:23.172Z,50.83
2022-08-04T13:32:58.870Z,49.84
2022-08-04T13:35:54.583Z,49.19
2022-08-04T13:38:21.592Z,48.36
2022-08-04T13:40:52.023Z,45.61
2022-08-04T13:44:15.821Z,47.84
2022-08-04T13:46:27.231Z,47.80
2022-08-04T13:51:57.412Z,48.77
2022-08-04T13:54:42.835Z,49.41
2022-08-04T13:57:15.577Z,50.09
2022-08-04T13:59:49.102Z,47.90
2022-08-04T14:02:34.986Z,48.13
2022-08-04T14:05:18.707Z,48.93
2022-08-04T14:07:52.439Z,48.80
2022-08-04T14:10:22.110Z,49.02
2022-08-04T14:12:52.700Z,48.23
2022-08-04T14:16:01.175Z,46.48
2022-08-04T14:18:32.684Z,47.13
2022-08-04T14:21:04.777Z,45.46
2022-08-04T14:23:51.690Z,46.43
2022-08-04T14:26:31.693Z,48.82
2022-08-04T14:29:28.566Z,47.37
2022-08-04T14:32:14.326Z,48.71
2022-08-04T14:34:46.842Z,49.17
2022-08-04T14:37:20.355Z,49.15
2022-08-04T14:40:17.751Z,47.04
2022-08-04T14:42:43.204Z,47.52
2022-08-04T14:45:13.295Z,47.91
2022-08-04T14:47:52.491Z,47.94
2022-08-04T14:50:36.316Z,47.51
2022-08-04T14:53:07.411Z,48.07
2022-08-04T14:55:37.710Z,47.22
2022-08-04T14:58:34.002Z,45.02
2022-08-04T15:00:59.360Z,46.54
2022-08-04T15:03:30.463Z,45.37
2022-08-04T15:06:09.434Z,45.89
2022-08-04T15:08:46.923Z,45.51
2022-08-04T15:11:22.661Z,44.26
2022-08-04T15:13:53.090Z,44.64
2022-08-04T15:16:22.859Z,45.58
2022-08-04T15:18:52.722Z,45.88
2022-08-04T15:21:26.012Z,45.80
2022-08-04T15:23:55.840Z,44.45
2022-08-04T15:26:30.312Z,43.28
2022-08-04T15:29:07.827Z,43.52
2022-08-04T15:32:06.535Z,42.61
2022-08-04T15:34:44.568Z,43.30
2022-08-04T15:37:20.149Z,43.27
2022-08-04T15:39:55.192Z,42.82
2022-08-04T15:42:34.310Z,43.05
2022-08-04T15:45:23.743Z,42.99
2022-08-04T15:48:27.487Z,43.36
2022-08-04T15:51:15.312Z,41.98
2022-08-04T15:54:30.777Z,41.73
2022-08-04T15:57:03.738Z,41.73
2022-08-04T16:00:00.142Z,41.23
2022-08-04T16:02:48.072Z,41.68
2022-08-04T16:05:35.698Z,41.94
2022-08-04T16:08:20.942Z,41.28
2022-08-04T16:10:53.067Z,40.99
2022-08-04T16:13:24.272Z,40.01
2022-08-04T16:15:55.003Z,40.20
2022-08-04T16:18:40.109Z,39.74
2022-08-04T16:21:22.805Z,38.92
2022-08-04T16:24:14.559Z,39.04
2022-08-04T16:26:56.262Z,38.73
2022-08-04T16:29:30.735Z,38.57
2022-08-04T16:32:22.000Z,38.07
2022-08-04T16:34:57.135Z,38.05
2022-08-04T16:37:34.955Z,37.42
2022-08-04T16:40:38.883Z,37.35
2022-08-04T16:43:13.494Z,36.64
2022-08-04T16:45:54.233Z,36.69
2022-08-04T16:48:27.170Z,36.71
2022-08-04T16:51:05.146Z,36.46
2022-08-04T16:53:53.391Z,36.35
2022-08-04T16:56:33.123Z,35.87
2022-08-04T16:59:10.271Z,35.83
2022-08-04T17:01:45.840Z,35.75
2022-08-04T17:04:15.417Z,35.96
2022-08-04T17:06:47.867Z,35.72
2022-08-04T17:09:19.678Z,35.44
2022-08-04T17:11:50.108Z,35.42
2022-08-04T17:14:25.780Z,34.85
2022-08-04T17:17:02.646Z,34.46
2022-08-04T17:19:32.640Z,34.29
2022-08-04T17:22:06.005Z,34.13
2022-08-04T17:24:38.278Z,33.89
2022-08-04T17:28:09.156Z,33.91
2022-08-04T17:29:59.080Z,33.75
2022-08-04T17:32:28.319Z,33.33
2022-08-04T17:35:02.169Z,33.07
2022-08-04T17:37:38.889Z,33.03
2022-08-04T17:40:11.898Z,32.87
2022-08-04T17:42:42.333Z,32.25
2022-08-04T17:45:49.236Z,32.32
2022-08-04T17:48:10.158Z,32.22
2022-08-04T17:50:41.504Z,31.91
2022-08-04T17:53:13.558Z,31.87
2022-08-04T17:55:49.551Z,31.85
2022-08-04T17:58:22.093Z,31.82
2022-08-04T18:01:23.200Z,31.70
2022-08-04T18:03:53.267Z,31.57
2022-08-04T18:06:25.597Z,31.64
2022-08-04T18:08:58.911Z,31.41
2022-08-04T18:11:57.319Z,31.54
2022-08-04T18:14:29.185Z,31.34
2022-08-04T18:16:59.787Z,31.38
2022-08-04T18:19:31.350Z,31.15
2022-08-04T18:24:55.645Z,30.97
2022-08-04T18:27:30.634Z,30.79
2022-08-04T18:30:32.458Z,30.62
2022-08-04T18:33:24.531Z,30.55
2022-08-04T18:36:35.531Z,30.37
2022-08-04T18:38:29.709Z,30.27
2022-08-04T18:40:59.314Z,30.11
2022-08-04T18:43:30.461Z,30.08
2022-08-04T18:46:15.036Z,29.96
2022-08-04T18:48:52.487Z,29.89
2022-08-04T18:51:24.350Z,29.73
2022-08-04T18:53:59.960Z,29.63
2022-08-04T18:56:31.817Z,29.51
2022-08-04T18:59:04.012Z,29.32
2022-08-04T19:02:12.757Z,29.28
2022-08-04T19:04:33.761Z,29.24
2022-08-04T19:07:29.471Z,29.11
2022-08-04T19:09:57.760Z,28.99
2022-08-04T19:12:29.010Z,28.81
2022-08-04T19:15:08.057Z,28.71
2022-08-04T19:17:53.597Z,28.56
2022-08-04T19:20:29.450Z,28.48
2022-08-04T19:24:11.101Z,28.37
2022-08-04T19:26:01.461Z,28.29
2022-08-04T19:28:37.065Z,28.19
2022-08-04T19:31:08.064Z,28.03
2022-08-04T19:33:59.046Z,27.90
2022-08-04T19:36:31.134Z,27.68
2022-08-04T19:39:04.212Z,27.51
2022-08-04T19:42:06.763Z,27.54
2022-08-04T19:44:30.605Z,27.51
2022-08-04T19:47:00.805Z,27.61
2022-08-04T19:50:04.353Z,27.77
2022-08-04T19:52:33.260Z,27.71
2022-08-04T19:55:10.482Z,27.57
2022-08-04T19:57:46.573Z,27.41
2022-08-04T20:00:33.746Z,27.21
2022-08-04T20:03:11.711Z,27.14
2022-08-04T20:05:53.576Z,27.04
2022-08-04T20:08:28.703Z,26.93
2022-08-04T20:10:59.302Z,26.81
2022-08-04T20:13:36.897Z,26.78
2022-08-04T20:19:02.714Z,26.63
2022-08-04T20:21:53.580Z,26.56
2022-08-04T20:24:38.679Z,26.49
2022-08-04T20:27:15.096Z,26.36
2022-08-04T20:30:13.888Z,26.20
2022-08-04T20:32:52.786Z,26.18
2022-08-04T20:35:26.880Z,26.07
2022-08-04T20:40:47.597Z,25.84
2022-08-04T20:43:20.467Z,25.72
2022-08-04T20:45:57.158Z,25.64
2022-08-04T20:48:29.691Z,25.66
2022-08-04T20:51:02.925Z,25.54
2022-08-04T20:53:32.519Z,25.44
2022-08-04T20:56:03.108Z,25.44
2022-08-04T20:58:33.922Z,25.35
2022-08-04T21:01:03.671Z,25.32
2022-08-04T21:04:00.804Z,25.13
2022-08-04T21:06:30.243Z,25.28
2022-08-04T21:08:59.384Z,25.07
2022-08-04T21:11:32.586Z,24.95
2022-08-04T21:14:02.422Z,24.75
2022-08-04T21:16:55.120Z,24.64
2022-08-04T21:19:24.550Z,24.68
2022-08-04T21:21:56.463Z,24.67
2022-08-04T21:24:26.985Z,24.60
2022-08-04T21:26:58.243Z,24.55
2022-08-04T21:29:29.629Z,24.43
2022-08-04T21:32:07.935Z,24.41
2022-08-04T21:34:39.939Z,24.32
2022-08-04T21:37:10.471Z,24.20
2022-08-04T21:39:58.782Z,24.25
2022-08-04T21:42:30.861Z,24.33
2022-08-04T21:45:00.334Z,24.26
2022-08-04T21:47:46.104Z,24.25
2022-08-04T21:50:19.600Z,24.19
2022-08-04T21:52:49.304Z,24.11
2022-08-04T21:55:19.675Z,24.12
2022-08-04T21:57:51.530Z,24.14
2022-08-04T22:00:21.493Z,24.14
2022-08-04T22:02:53.508Z,24.15
2022-08-04T22:05:23.739Z,24.17
2022-08-04T22:07:53.596Z,24.16
2022-08-04T22:10:32.629Z,24.18
2022-08-04T22:13:07.102Z,24.25
2022-08-04T22:16:05.233Z,24.18
2022-08-04T22:18:27.849Z,24.07
2022-08-04T22:20:57.216Z,24.02
2022-08-04T22:23:27.552Z,24.02
2022-08-04T22:25:58.482Z,23.93
2022-08-04T22:28:29.299Z,23.85
2022-08-04T22:30:59.096Z,23.77
2022-08-04T22:33:55.211Z,23.79
2022-08-04T22:36:18.980Z,23.64
2022-08-04T22:38:53.533Z,23.52
2022-08-04T22:41:34.397Z,23.48
2022-08-04T22:44:18.550Z,23.41
2022-08-04T22:46:50.127Z,23.33
2022-08-04T22:49:18.966Z,23.40
2022-08-04T22:51:54.201Z,23.53
2022-08-04T22:54:23.345Z,23.32
2022-08-04T22:56:57.868Z,23.39
2022-08-04T22:59:28.423Z,23.15
2022-08-04T23:02:00.765Z,23.12
2022-08-04T23:04:32.656Z,23.06
2022-08-04T23:07:09.077Z,22.94
2022-08-04T23:09:50.198Z,22.88
2022-08-04T23:12:26.094Z,22.90
2022-08-04T23:14:59.380Z,22.94
2022-08-04T23:17:32.915Z,22.87
2022-08-04T23:20:22.892Z,22.86
2022-08-04T23:22:55.881Z,22.81
2022-08-04T23:25:33.242Z,22.82
2022-08-04T23:28:14.698Z,22.78
2022-08-04T23:30:45.527Z,22.81
2022-08-04T23:33:14.854Z,22.72
2022-08-04T23:35:44.949Z,22.71
2022-08-04T23:38:31.442Z,22.68
2022-08-04T23:41:07.292Z,22.63
2022-08-04T23:43:55.521Z,22.69
2022-08-04T23:46:27.366Z,22.71
2022-08-04T23:48:56.553Z,22.75
2022-08-04T23:51:26.547Z,22.83
2022-08-04T23:54:03.393Z,22.81
2022-08-04T23:56:34.628Z,22.81
2022-08-04T23:59:04.702Z,22.83
